createdAt,value
2023-01-11T00:01:57.769Z,5.65
2023-01-11T00:04:30.696Z,6.07
2023-01-11T00:07:03.015Z,5.68
2023-01-11T00:09:34.737Z,6.38
2023-01-11T00:12:06.531Z,5.65
2023-01-11T00:14:38.203Z,5.43
2023-01-11T00:17:09.941Z,5.80
2023-01-11T00:19:41.957Z,5.97
2023-01-11T00:22:13.791Z,6.30
2023-01-11T00:24:45.505Z,5.38
2023-01-11T00:27:19.924Z,5.35
2023-01-11T00:29:51.613Z,5.85
2023-01-11T00:32:23.529Z,5.50
2023-01-11T00:34:55.196Z,5.43
2023-01-11T00:37:26.907Z,5.82
2023-01-11T00:39:58.621Z,6.00
2023-01-11T00:42:48.966Z,5.18
2023-01-11T00:45:39.302Z,4.78
2023-01-11T00:48:11.148Z,5.50
2023-01-11T00:50:42.833Z,5.28
2023-01-11T00:53:14.617Z,5.50
2023-01-11T00:55:46.440Z,5.75
2023-01-11T00:58:18.080Z,5.82
2023-01-11T01:00:49.754Z,5.80
2023-01-11T01:03:21.405Z,5.55
2023-01-11T01:05:55.879Z,4.88
2023-01-11T01:08:27.798Z,4.80
2023-01-11T01:10:59.454Z,4.30
2023-01-11T01:13:49.879Z,5.45
2023-01-11T01:16:21.640Z,5.70
2023-01-11T01:18:53.985Z,5.18
2023-01-11T01:21:27.491Z,5.38
2023-01-11T01:24:00.542Z,5.70
2023-01-11T01:26:32.236Z,5.60
2023-01-11T01:29:04.600Z,7.32
2023-01-11T01:31:36.323Z,5.47
2023-01-11T01:34:11.175Z,5.28
2023-01-11T01:36:43.251Z,5.55
2023-01-11T01:39:15.183Z,5.65
2023-01-11T01:41:47.171Z,5.63
2023-01-11T01:44:52.617Z,5.63
2023-01-11T01:47:43.439Z,5.53
2023-01-11T01:50:25.403Z,5.75
2023-01-11T01:53:05.724Z,5.78
2023-01-11T01:55:41.148Z,5.32
2023-01-11T01:58:16.028Z,5.43
2023-01-11T02:03:24.632Z,5.20
2023-01-11T02:05:56.410Z,4.60
2023-01-11T02:08:35.808Z,5.25
2023-01-11T02:11:27.920Z,4.88
2023-01-11T02:14:03.496Z,5.15
2023-01-11T02:16:35.522Z,5.38
2023-01-11T02:19:14.784Z,4.80
2023-01-11T02:22:06.993Z,5.88
2023-01-11T02:24:50.967Z,5.55
2023-01-11T02:27:47.617Z,5.07
2023-01-11T02:30:31.227Z,5.22
2023-01-11T02:33:18.774Z,5.10
2023-01-11T02:36:02.847Z,4.60
2023-01-11T02:38:45.617Z,5.07
2023-01-11T02:41:51.199Z,5.38
2023-01-11T02:44:57.295Z,4.70
2023-01-11T02:47:52.509Z,6.32
2023-01-11T02:50:36.103Z,4.72
2023-01-11T02:53:12.720Z,5.13
2023-01-11T02:55:49.427Z,4.45
2023-01-11T02:58:25.148Z,4.90
2023-01-11T03:00:58.780Z,4.40
2023-01-11T03:03:31.066Z,4.10
2023-01-11T03:06:08.555Z,4.38
2023-01-11T03:09:01.882Z,4.47
2023-01-11T03:12:21.674Z,4.50
2023-01-11T03:15:32.245Z,3.97
2023-01-11T03:18:09.891Z,4.05
2023-01-11T03:20:46.859Z,4.10
2023-01-11T03:23:31.100Z,5.18
2023-01-11T03:26:02.690Z,3.93
2023-01-11T03:29:10.662Z,3.88
2023-01-11T03:32:14.318Z,4.22
2023-01-11T03:35:10.643Z,4.75
2023-01-11T03:37:51.139Z,4.57
2023-01-11T03:40:31.093Z,4.40
2023-01-11T03:43:13.538Z,5.03
2023-01-11T03:45:57.369Z,4.72
2023-01-11T03:48:53.113Z,4.53
2023-01-11T03:51:32.131Z,4.90
2023-01-11T03:54:07.258Z,4.50
2023-01-11T03:56:49.271Z,4.00
2023-01-11T03:59:20.977Z,5.07
2023-01-11T04:01:54.495Z,4.90
2023-01-11T04:04:26.406Z,4.63
2023-01-11T04:06:58.459Z,4.82
2023-01-11T04:09:30.153Z,5.78
2023-01-11T04:12:01.819Z,5.68
2023-01-11T04:14:33.562Z,5.13
2023-01-11T04:17:05.703Z,4.97
2023-01-11T04:19:38.670Z,4.80
2023-01-11T04:22:10.362Z,5.10
2023-01-11T04:24:42.141Z,4.30
2023-01-11T04:27:13.844Z,4.50
2023-01-11T04:29:45.545Z,4.10
2023-01-11T04:32:17.315Z,3.72
2023-01-11T04:34:50.538Z,3.92
2023-01-11T04:37:22.213Z,3.70
2023-01-11T04:39:53.913Z,3.53
2023-01-11T04:42:25.947Z,4.13
2023-01-11T04:44:57.607Z,4.28
2023-01-11T04:47:29.286Z,4.43
2023-01-11T04:50:01.586Z,4.15
2023-01-11T04:52:33.258Z,4.60
2023-01-11T04:55:05.371Z,4.25
2023-01-11T04:57:37.087Z,4.28
2023-01-11T05:00:10.993Z,3.90
2023-01-11T05:02:42.887Z,4.40
2023-01-11T05:05:17.557Z,4.30
2023-01-11T05:07:49.284Z,4.05
2023-01-11T05:10:21.173Z,3.83
2023-01-11T05:12:52.870Z,4.30
2023-01-11T05:15:24.587Z,3.92
2023-01-11T05:17:56.255Z,5.30
2023-01-11T05:20:27.969Z,7.53
2023-01-11T05:22:59.661Z,8.77
2023-01-11T05:25:31.372Z,9.50
2023-01-11T05:28:03.061Z,9.50
2023-01-11T05:30:34.753Z,6.63
2023-01-11T05:33:10.422Z,5.03
2023-01-11T05:35:42.147Z,4.22
2023-01-11T05:38:13.902Z,3.47
2023-01-11T05:40:53.124Z,4.00
2023-01-11T05:43:25.504Z,4.93
2023-01-11T05:45:58.220Z,3.50
2023-01-11T05:48:29.940Z,3.75
2023-01-11T05:51:02.328Z,3.70
2023-01-11T05:53:34.010Z,4.10
2023-01-11T05:56:06.453Z,5.30
2023-01-11T05:58:38.198Z,5.93
2023-01-11T06:01:12.637Z,7.07
2023-01-11T06:03:45.278Z,6.53
2023-01-11T06:06:18.543Z,4.65
2023-01-11T06:08:50.277Z,5.88
2023-01-11T06:11:23.351Z,5.07
2023-01-11T06:13:55.277Z,6.32
2023-01-11T06:16:27.106Z,7.03
2023-01-11T06:18:58.856Z,5.15
2023-01-11T06:21:30.535Z,5.05
2023-01-11T06:24:02.249Z,4.03
2023-01-11T06:26:35.195Z,3.92
2023-01-11T06:29:06.888Z,4.05
2023-01-11T06:31:38.558Z,3.60
2023-01-11T06:34:10.377Z,3.58
2023-01-11T06:36:42.195Z,3.53
2023-01-11T06:39:13.897Z,3.63
2023-01-11T06:41:45.566Z,3.65
2023-01-11T06:44:17.316Z,3.63
2023-01-11T06:46:49.177Z,3.20
2023-01-11T06:49:20.877Z,3.15
2023-01-11T06:51:53.056Z,3.30
2023-01-11T06:54:25.764Z,2.95
2023-01-11T06:56:57.962Z,2.92
2023-01-11T06:59:29.657Z,3.17
2023-01-11T07:02:04.344Z,3.50
2023-01-11T07:04:36.174Z,3.20
2023-01-11T07:07:08.011Z,2.85
2023-01-11T07:09:39.752Z,3.60
2023-01-11T07:12:11.443Z,3.33
2023-01-11T07:14:43.185Z,2.83
2023-01-11T07:17:15.065Z,2.80
2023-01-11T07:19:46.737Z,2.80
2023-01-11T07:22:18.494Z,3.20
2023-01-11T07:24:52.149Z,2.78
2023-01-11T07:27:23.945Z,2.90
2023-01-11T07:29:55.710Z,3.50
2023-01-11T07:32:28.086Z,3.35
2023-01-11T07:34:59.796Z,3.15
2023-01-11T07:37:35.251Z,3.10
2023-01-11T07:40:07.785Z,3.42
2023-01-11T07:42:58.248Z,2.55
2023-01-11T07:45:45.412Z,3.10
2023-01-11T07:48:27.098Z,2.92
2023-01-11T07:50:59.264Z,2.55
2023-01-11T07:53:33.902Z,2.58
2023-01-11T07:56:05.800Z,3.00
2023-01-11T07:58:37.520Z,3.08
2023-01-11T08:01:09.319Z,2.30
2023-01-11T08:03:41.138Z,2.47
2023-01-11T08:06:14.623Z,2.90
2023-01-11T08:08:46.304Z,3.80
2023-01-11T08:11:36.804Z,3.13
2023-01-11T08:14:29.075Z,3.45
2023-01-11T08:17:03.744Z,3.00
2023-01-11T08:19:35.787Z,3.55
2023-01-11T08:22:07.799Z,3.90
2023-01-11T08:24:39.532Z,5.30
2023-01-11T08:27:11.452Z,3.63
2023-01-11T08:29:44.471Z,3.38
2023-01-11T08:32:16.173Z,3.75
2023-01-11T08:34:48.093Z,3.33
2023-01-11T08:37:19.799Z,2.83
2023-01-11T08:39:51.567Z,2.30
2023-01-11T08:42:23.323Z,2.60
2023-01-11T08:44:55.540Z,2.65
2023-01-11T08:47:27.256Z,2.35
2023-01-11T08:49:58.982Z,2.38
2023-01-11T08:52:30.732Z,2.78
2023-01-11T08:55:02.468Z,2.65
2023-01-11T08:57:35.355Z,2.50
2023-01-11T09:00:11.587Z,3.30
2023-01-11T09:02:45.429Z,2.78
2023-01-11T09:05:20.803Z,3.10
2023-01-11T09:07:57.631Z,3.03
2023-01-11T09:10:29.925Z,2.05
2023-01-11T09:13:01.737Z,2.67
2023-01-11T09:15:33.478Z,2.35
2023-01-11T09:18:05.474Z,2.90
2023-01-11T09:20:37.154Z,2.80
2023-01-11T09:23:08.885Z,2.80
2023-01-11T09:25:40.625Z,2.40
2023-01-11T09:28:12.376Z,2.97
2023-01-11T09:30:44.238Z,2.42
2023-01-11T09:33:15.951Z,2.53
2023-01-11T09:35:49.247Z,3.00
2023-01-11T09:38:21.111Z,3.13
2023-01-11T09:41:08.353Z,2.60
2023-01-11T09:43:51.084Z,3.03
2023-01-11T09:46:24.706Z,2.90
2023-01-11T09:48:59.665Z,2.67
2023-01-11T09:51:35.395Z,2.40
2023-01-11T09:54:11.817Z,3.03
2023-01-11T09:57:17.138Z,2.80
2023-01-11T09:59:58.350Z,2.63
2023-01-11T10:02:38.263Z,2.83
2023-01-11T10:05:31.997Z,2.28
2023-01-11T10:18:22.039Z,2.33
2023-01-11T10:18:32.627Z,2.30
2023-01-11T10:21:07.184Z,2.63
2023-01-11T10:23:50.206Z,2.10
2023-01-11T10:26:28.749Z,2.20
2023-01-11T10:29:21.224Z,1.98
2023-01-11T10:32:02.928Z,2.00
2023-01-11T10:35:13.690Z,2.40
2023-01-11T10:37:50.210Z,2.47
2023-01-11T10:40:40.474Z,2.53
2023-01-11T10:43:21.875Z,2.70
2023-01-11T10:45:59.356Z,2.05
2023-01-11T10:48:38.008Z,2.10
2023-01-11T10:51:09.699Z,2.05
2023-01-11T10:54:14.295Z,2.20
2023-01-11T10:57:18.307Z,2.20
2023-01-11T11:00:22.662Z,3.00
2023-01-11T11:03:06.801Z,2.08
2023-01-11T11:05:50.310Z,1.80
2023-01-11T11:08:56.356Z,2.67
2023-01-11T11:11:57.901Z,2.00
2023-01-11T11:14:59.997Z,2.13
2023-01-11T11:17:42.126Z,2.17
2023-01-11T11:20:17.019Z,2.28
2023-01-11T11:22:50.768Z,1.88
2023-01-11T11:25:27.561Z,1.88
2023-01-11T11:28:15.493Z,2.10
2023-01-11T11:30:48.128Z,2.30
2023-01-11T11:33:26.535Z,1.75
2023-01-11T11:36:06.576Z,2.08
2023-01-11T11:38:41.878Z,2.10
2023-01-11T11:41:17.084Z,2.00
2023-01-11T11:43:48.901Z,1.95
2023-01-11T11:46:27.269Z,2.35
2023-01-11T11:49:18.221Z,1.50
2023-01-11T11:51:52.051Z,1.48
2023-01-11T11:54:26.594Z,1.97
2023-01-11T11:57:18.171Z,2.03
2023-01-11T12:00:02.373Z,1.88
2023-01-11T12:02:39.011Z,1.50
2023-01-11T12:05:11.331Z,1.77
2023-01-11T12:07:55.293Z,1.80
2023-01-11T12:10:29.159Z,2.03
2023-01-11T12:13:03.074Z,1.75
2023-01-11T12:15:37.576Z,2.00
2023-01-11T12:18:38.886Z,1.85
2023-01-11T12:21:21.757Z,1.70
2023-01-11T12:24:17.209Z,1.70
2023-01-11T12:29:40.751Z,1.85
2023-01-11T12:32:30.585Z,1.70
2023-01-11T12:35:25.230Z,2.13
2023-01-11T12:38:24.691Z,1.90
2023-01-11T12:41:08.782Z,1.90
2023-01-11T12:43:58.758Z,2.23
2023-01-11T12:46:45.354Z,2.00
2023-01-11T12:49:43.092Z,2.10
2023-01-11T12:52:33.545Z,2.22
2023-01-11T12:55:11.419Z,2.28
2023-01-11T12:58:14.166Z,1.90
2023-01-11T13:01:04.503Z,2.15
2023-01-11T13:03:57.717Z,1.90
2023-01-11T13:06:57.340Z,2.00
2023-01-11T13:10:21.147Z,2.05
2023-01-11T13:13:27.953Z,2.35
2023-01-11T13:16:37.517Z,1.88
2023-01-11T13:19:21.335Z,2.00
2023-01-11T13:21:56.378Z,2.30
2023-01-11T13:24:31.309Z,1.77
2023-01-11T13:27:07.496Z,2.17
2023-01-11T13:29:45.625Z,1.88
2023-01-11T13:32:22.460Z,2.00
2023-01-11T13:35:15.348Z,1.90
2023-01-11T13:37:55.350Z,1.73
2023-01-11T13:40:38.558Z,1.83
2023-01-11T13:43:18.342Z,2.65
2023-01-11T13:46:03.286Z,1.73
2023-01-11T13:48:42.086Z,2.33
2023-01-11T13:51:31.536Z,2.03
2023-01-11T13:54:22.445Z,1.63
2023-01-11T13:57:13.243Z,2.00
2023-01-11T13:59:51.487Z,3.22
2023-01-11T14:02:48.610Z,2.28
2023-01-11T14:05:22.775Z,2.15
2023-01-11T14:08:19.050Z,2.30
2023-01-11T14:11:06.027Z,2.50
2023-01-11T14:14:12.512Z,2.60
2023-01-11T14:16:50.205Z,2.53
2023-01-11T14:19:28.799Z,2.30
2023-01-11T14:22:31.031Z,2.60
2023-01-11T14:26:01.426Z,2.22
2023-01-11T14:28:39.045Z,2.33
2023-01-11T14:31:32.562Z,2.63
2023-01-11T14:34:23.012Z,2.47
2023-01-11T14:37:00.675Z,2.25
2023-01-11T14:39:43.117Z,2.60
2023-01-11T14:42:35.319Z,2.67
2023-01-11T14:45:22.441Z,2.40
2023-01-11T14:47:54.053Z,2.30
2023-01-11T14:50:41.012Z,2.42
2023-01-11T14:53:19.643Z,2.40
2023-01-11T14:55:54.315Z,3.08
2023-01-11T15:01:08.622Z,2.70
2023-01-11T15:03:47.186Z,2.88
2023-01-11T15:06:21.509Z,3.38
2023-01-11T15:08:55.348Z,2.58
2023-01-11T15:11:37.059Z,2.80
2023-01-11T15:14:23.575Z,2.72
2023-01-11T15:17:20.920Z,3.50
2023-01-11T15:19:54.863Z,2.78
2023-01-11T15:22:30.832Z,2.90
2023-01-11T15:25:07.763Z,3.05
2023-01-11T15:27:39.706Z,3.17
2023-01-11T15:30:29.898Z,2.83
2023-01-11T15:33:19.725Z,3.95
2023-01-11T15:35:57.589Z,3.35
2023-01-11T15:38:42.650Z,3.00
2023-01-11T15:44:54.800Z,3.55
2023-01-11T15:47:32.292Z,3.40
2023-01-11T15:50:25.144Z,3.08
2023-01-11T15:53:18.335Z,3.20
2023-01-11T15:56:27.966Z,4.00
2023-01-11T15:59:36.184Z,3.92
2023-01-11T16:02:34.668Z,4.00
2023-01-11T16:05:13.890Z,4.63
2023-01-11T16:08:15.438Z,3.60
2023-01-11T16:11:13.151Z,3.90
2023-01-11T16:13:55.868Z,3.92
2023-01-11T16:16:31.777Z,3.65
2023-01-11T16:19:20.194Z,3.75
2023-01-11T16:22:01.787Z,3.75
2023-01-11T16:24:42.630Z,3.95
2023-01-11T16:27:24.653Z,3.70
2023-01-11T16:29:57.943Z,3.28
2023-01-11T16:32:34.970Z,3.40
2023-01-11T16:35:24.381Z,3.63
2023-01-11T16:38:02.604Z,3.80
2023-01-11T16:40:42.452Z,3.60
2023-01-11T16:43:31.061Z,3.58
2023-01-11T16:46:03.382Z,3.90
2023-01-11T16:48:35.607Z,3.72
2023-01-11T16:51:10.402Z,3.40
2023-01-11T16:53:45.126Z,3.85
2023-01-11T16:59:15.494Z,3.83
2023-01-11T17:01:53.086Z,4.00
2023-01-11T17:04:33.927Z,4.18
2023-01-11T17:07:22.769Z,4.40
2023-01-11T17:10:16.565Z,4.00
2023-01-11T17:13:43.088Z,4.30
2023-01-11T17:16:16.184Z,4.72
2023-01-11T17:18:48.054Z,4.55
2023-01-11T17:21:24.154Z,4.20
2023-01-11T17:24:00.440Z,4.93
2023-01-11T17:26:42.614Z,5.00
2023-01-11T17:29:38.454Z,4.78
2023-01-11T17:32:38.073Z,5.20
2023-01-11T17:35:22.613Z,5.45
2023-01-11T17:38:06.454Z,5.68
2023-01-11T17:40:42.060Z,5.40
2023-01-11T17:43:44.751Z,5.65
2023-01-11T17:46:23.632Z,5.60
2023-01-11T17:48:59.669Z,5.25
2023-01-11T17:51:34.772Z,7.55
2023-01-11T17:54:21.854Z,6.30
2023-01-11T17:57:00.699Z,5.93
2023-01-11T17:59:32.374Z,6.03
2023-01-11T18:02:13.038Z,5.65
2023-01-11T18:04:59.661Z,6.05
2023-01-11T18:07:31.425Z,5.22
2023-01-11T18:10:03.966Z,5.70
2023-01-11T18:12:35.952Z,5.30
2023-01-11T18:15:08.393Z,5.75
2023-01-11T18:17:42.288Z,5.93
2023-01-11T18:20:14.028Z,6.80
2023-01-11T18:22:58.827Z,6.20
2023-01-11T18:25:33.897Z,6.20
2023-01-11T18:28:27.909Z,6.13
2023-01-11T18:31:01.933Z,6.40
2023-01-11T18:33:34.671Z,6.40
2023-01-11T18:36:22.574Z,6.38
2023-01-11T18:38:54.282Z,5.95
2023-01-11T18:41:44.893Z,6.13
2023-01-11T18:44:17.943Z,6.75
2023-01-11T18:46:49.622Z,5.78
2023-01-11T18:49:21.357Z,7.57
2023-01-11T18:51:53.041Z,6.68
2023-01-11T18:54:24.807Z,6.10
2023-01-11T18:56:58.804Z,6.85
2023-01-11T18:59:30.524Z,6.25
2023-01-11T19:02:16.522Z,7.38
2023-01-11T19:04:49.331Z,7.28
2023-01-11T19:07:21.907Z,6.05
2023-01-11T19:09:59.314Z,5.30
2023-01-11T19:12:31.278Z,6.03
2023-01-11T19:15:03.049Z,6.28
2023-01-11T19:17:34.902Z,6.35
2023-01-11T19:20:09.188Z,6.68
2023-01-11T19:22:41.928Z,7.07
2023-01-11T19:25:13.650Z,6.38
2023-01-11T19:27:45.379Z,6.50
2023-01-11T19:30:17.373Z,6.95
2023-01-11T19:32:53.012Z,5.40
2023-01-11T19:35:24.823Z,5.25
2023-01-11T19:37:56.568Z,5.13
2023-01-11T19:40:28.383Z,4.93
2023-01-11T19:43:03.122Z,5.30
2023-01-11T19:48:07.230Z,6.00
2023-01-11T19:50:41.739Z,5.60
2023-01-11T19:53:13.457Z,5.50
2023-01-11T19:55:45.663Z,5.18
2023-01-11T19:58:17.389Z,5.00
2023-01-11T20:00:49.121Z,5.25
2023-01-11T20:03:20.891Z,5.38
2023-01-11T20:05:52.590Z,5.30
2023-01-11T20:08:24.310Z,5.40
2023-01-11T20:10:56.518Z,5.80
2023-01-11T20:13:28.250Z,5.72
2023-01-11T20:16:08.413Z,5.25
2023-01-11T20:18:42.374Z,5.18
2023-01-11T20:21:14.157Z,5.13
2023-01-11T20:23:45.928Z,5.68
2023-01-11T20:26:18.104Z,5.65
2023-01-11T20:28:53.302Z,5.53
2023-01-11T20:31:27.909Z,5.85
2023-01-11T20:34:13.620Z,5.72
2023-01-11T20:36:45.592Z,6.10
2023-01-11T20:39:17.583Z,6.10
2023-01-11T20:41:51.880Z,6.30
2023-01-11T20:44:27.377Z,5.57
2023-01-11T20:46:59.893Z,6.82
2023-01-11T20:49:31.614Z,4.95
2023-01-11T20:52:03.716Z,5.22
2023-01-11T20:54:37.064Z,4.85
2023-01-11T20:57:12.594Z,4.80
2023-01-11T20:59:44.506Z,5.30
2023-01-11T21:02:16.470Z,5.18
2023-01-11T21:04:48.138Z,5.70
2023-01-11T21:07:19.968Z,5.38
2023-01-11T21:09:51.828Z,6.22
2023-01-11T21:12:24.011Z,6.03
2023-01-11T21:14:55.726Z,5.50
2023-01-11T21:17:27.917Z,5.63
2023-01-11T21:19:59.660Z,4.75
2023-01-11T21:22:31.357Z,4.90
2023-01-11T21:25:03.162Z,5.65
2023-01-11T21:27:34.905Z,4.82
2023-01-11T21:30:07.083Z,5.00
2023-01-11T21:32:38.997Z,4.65
2023-01-11T21:35:10.798Z,4.57
2023-01-11T21:37:42.535Z,4.80
2023-01-11T21:40:14.890Z,4.75
2023-01-11T21:42:46.600Z,4.88
2023-01-11T21:45:18.377Z,4.60
2023-01-11T21:47:50.108Z,4.85
2023-01-11T21:50:21.833Z,4.82
2023-01-11T21:52:55.089Z,4.63
2023-01-11T21:55:31.068Z,4.78
2023-01-11T21:58:02.828Z,5.18
2023-01-11T22:00:35.725Z,5.07
2023-01-11T22:03:07.483Z,4.85
2023-01-11T22:05:43.090Z,5.30
2023-01-11T22:08:15.073Z,5.82
2023-01-11T22:10:59.107Z,4.90
2023-01-11T22:13:32.076Z,5.20
2023-01-11T22:16:06.538Z,4.80
2023-01-11T22:18:38.394Z,5.10
2023-01-11T22:21:12.931Z,4.97
2023-01-11T22:23:46.091Z,5.20
2023-01-11T22:26:19.704Z,5.70
2023-01-11T22:29:14.128Z,5.20
2023-01-11T22:31:52.671Z,6.05
2023-01-11T22:34:25.099Z,6.47
2023-01-11T22:36:56.975Z,5.80
2023-01-11T22:39:29.570Z,5.90
2023-01-11T22:42:01.305Z,6.07
2023-01-11T22:44:35.220Z,5.60
2023-01-11T22:47:06.954Z,5.60
2023-01-11T22:49:38.652Z,6.07
2023-01-11T22:52:10.439Z,6.70
2023-01-11T22:54:42.548Z,6.80
2023-01-11T22:57:14.522Z,6.03
2023-01-11T22:59:46.215Z,5.50
2023-01-11T23:02:18.299Z,5.70
2023-01-11T23:04:49.995Z,6.10
2023-01-11T23:07:21.724Z,5.97
2023-01-11T23:09:53.457Z,7.07
2023-01-11T23:12:43.817Z,6.25
2023-01-11T23:15:15.564Z,6.13
2023-01-11T23:17:48.559Z,6.43
2023-01-11T23:20:20.286Z,6.15
2023-01-11T23:22:52.023Z,6.20
2023-01-11T23:25:23.718Z,5.70
2023-01-11T23:27:55.724Z,6.40
2023-01-11T23:30:27.595Z,5.90
2023-01-11T23:32:59.379Z,6.95
2023-01-11T23:35:31.429Z,5.57
2023-01-11T23:38:03.478Z,6.38
2023-01-11T23:40:55.699Z,6.18
2023-01-11T23:43:27.697Z,6.28
2023-01-11T23:46:23.169Z,6.22
2023-01-11T23:48:55.223Z,6.85
2023-01-11T23:51:26.950Z,5.57
2023-01-11T23:53:59.958Z,5.60
2023-01-11T23:56:32.800Z,5.55
2023-01-11T23:59:06.995Z,5.10
